Time;durP1;ratioP1;P1;durP2;ratioP2;P2;SDS_P1;SDS_P2;PMS_P1;PMS_P2;Temp;Humidity;BMP_temperature;BMP_pressure;BME280_temperature;BME280_humidity;BME280_pressure;Samples;Min_cycle;Max_cycle;Signal;HPM_P1;HPM_P2
2023/12/07 00:01:28;;;;;;;5.07;2.53;;;8.20;69.30;;;;;;4975919;28;20392;-84
2023/12/07 00:03:55;;;;;;;3.70;2.05;;;8.20;69.30;;;;;;4990666;28;20407;-85
2023/12/07 00:06:23;;;;;;;5.20;2.47;;;8.30;69.60;;;;;;4973956;28;20053;-85
2023/12/07 00:08:49;;;;;;;5.20;2.67;;;8.30;69.60;;;;;;4992121;28;20125;-85
2023/12/07 00:11:16;;;;;;;2.97;2.25;;;8.30;69.60;;;;;;4988348;28;20038;-83
2023/12/07 00:13:44;;;;;;;4.80;2.20;;;8.30;69.60;;;;;;4993178;28;20034;-83
2023/12/07 00:16:10;;;;;;;3.30;2.60;;;8.30;69.60;;;;;;4975189;28;20030;-84
2023/12/07 00:18:38;;;;;;;3.50;2.40;;;8.30;69.60;;;;;;4992224;28;20049;-83
2023/12/07 00:21:05;;;;;;;4.68;3.42;;;8.30;69.60;;;;;;4992488;28;20062;-83
2023/12/07 00:23:34;;;;;;;6.00;2.70;;;8.30;69.70;;;;;;4962285;28;20041;-84
2023/12/07 00:26:02;;;;;;;3.63;2.60;;;8.30;69.70;;;;;;4974364;28;20628;-84
2023/12/07 00:28:28;;;;;;;4.18;2.20;;;8.30;69.60;;;;;;5001064;28;20038;-83
2023/12/07 00:30:55;;;;;;;4.65;1.98;;;8.40;69.80;;;;;;4991274;28;20030;-86
2023/12/07 00:33:21;;;;;;;3.70;2.15;;;8.40;69.90;;;;;;4993493;28;20022;-83
2023/12/07 00:35:48;;;;;;;3.72;2.53;;;8.40;69.80;;;;;;4991252;28;20046;-83
2023/12/07 00:38:14;;;;;;;3.20;2.47;;;8.40;69.80;;;;;;4991231;28;20085;-82
2023/12/07 00:40:40;;;;;;;3.70;2.30;;;8.40;69.90;;;;;;4989818;28;20064;-82
2023/12/07 00:43:07;;;;;;;3.00;2.28;;;8.40;69.90;;;;;;4956859;28;20034;-82
2023/12/07 00:45:37;;;;;;;3.75;2.42;;;8.40;69.90;;;;;;4990388;28;20030;-81
2023/12/07 00:48:04;;;;;;;3.35;2.50;;;8.40;69.90;;;;;;4991970;28;20506;-82
2023/12/07 00:50:31;;;;;;;5.97;2.60;;;8.40;70.50;;;;;;5011295;28;20041;-84
2023/12/07 00:52:57;;;;;;;4.75;2.38;;;8.40;70.00;;;;;;5010364;28;20034;-84
2023/12/07 00:55:23;;;;;;;4.90;2.92;;;8.40;70.00;;;;;;5010917;28;20350;-84
2023/12/07 00:57:49;;;;;;;2.45;2.17;;;8.40;70.00;;;;;;5012694;28;20581;-84
2023/12/07 01:00:15;;;;;;;3.15;2.38;;;8.40;70.00;;;;;;4982959;28;20455;-83
2023/12/07 01:02:44;;;;;;;5.38;2.38;;;8.50;70.20;;;;;;5009205;28;20273;-83
2023/12/07 01:05:10;;;;;;;8.90;2.63;;;8.50;70.20;;;;;;4986455;28;20448;-84
2023/12/07 01:07:36;;;;;;;2.72;1.95;;;8.50;70.20;;;;;;5003795;28;20109;-85
2023/12/07 01:10:07;;;;;;;3.20;1.95;;;8.50;70.20;;;;;;5009834;28;20038;-86
2023/12/07 01:12:36;;;;;;;2.92;2.08;;;8.50;70.20;;;;;;5011697;28;20049;-85
2023/12/07 01:15:06;;;;;;;3.47;2.00;;;8.50;70.20;;;;;;5008893;28;20066;-83
2023/12/07 01:17:35;;;;;;;3.33;2.30;;;8.60;70.40;;;;;;5012722;28;20388;-82
2023/12/07 01:20:12;;;;;;;3.72;2.20;;;8.50;70.20;;;;;;4979985;28;20068;-84
2023/12/07 01:22:42;;;;;;;2.38;1.83;;;8.50;70.40;;;;;;4994128;28;20069;-83
2023/12/07 01:25:08;;;;;;;3.63;2.20;;;8.50;70.20;;;;;;5011095;28;20033;-83
2023/12/07 01:27:35;;;;;;;5.03;2.63;;;8.50;70.30;;;;;;4995521;28;20587;-82
2023/12/07 01:30:01;;;;;;;3.30;2.03;;;8.50;70.30;;;;;;4993917;28;20038;-83
2023/12/07 01:32:28;;;;;;;2.97;2.50;;;8.60;70.50;;;;;;4994143;28;20565;-83
2023/12/07 01:34:55;;;;;;;5.05;2.38;;;8.50;70.30;;;;;;5016798;28;20373;-83
2023/12/07 01:37:21;;;;;;;3.78;2.78;;;8.60;70.50;;;;;;5025606;28;20343;-81
2023/12/07 01:39:48;;;;;;;2.78;1.90;;;8.60;71.00;;;;;;5027559;28;20033;-83
2023/12/07 01:42:14;;;;;;;4.60;1.90;;;8.60;70.50;;;;;;5024887;28;20073;-83
2023/12/07 01:44:41;;;;;;;3.85;2.67;;;8.60;70.50;;;;;;5027473;28;20026;-84
2023/12/07 01:47:08;;;;;;;4.00;2.20;;;8.60;70.60;;;;;;5021879;28;20033;-83
2023/12/07 01:49:45;;;;;;;3.25;2.03;;;8.60;70.60;;;;;;5007491;28;20062;-83
2023/12/07 01:52:11;;;;;;;5.70;2.15;;;8.60;70.60;;;;;;4996822;28;20133;-84
2023/12/07 01:54:42;;;;;;;4.30;2.05;;;8.60;70.60;;;;;;4997763;28;20049;-83
2023/12/07 01:57:08;;;;;;;2.30;1.80;;;8.60;70.60;;;;;;4975658;28;20034;-85
2023/12/07 01:59:37;;;;;;;3.45;1.95;;;8.60;70.60;;;;;;4989373;28;20030;-83
2023/12/07 02:02:03;;;;;;;3.38;2.10;;;8.60;70.60;;;;;;4962002;28;20049;-82
2023/12/07 02:04:31;;;;;;;4.93;1.85;;;8.70;70.80;;;;;;4988744;28;20042;-83
2023/12/07 02:06:59;;;;;;;2.22;1.60;;;8.70;70.80;;;;;;4989142;28;20258;-85
2023/12/07 02:09:26;;;;;;;6.75;1.95;;;8.70;70.80;;;;;;4973095;28;20031;-83
2023/12/07 02:11:54;;;;;;;4.53;1.60;;;8.70;70.80;;;;;;4977922;28;20038;-84
2023/12/07 02:14:20;;;;;;;5.30;2.00;;;8.70;70.90;;;;;;4970659;28;20031;-84
2023/12/07 02:16:50;;;;;;;2.90;1.67;;;8.70;70.90;;;;;;4993172;28;20078;-83
2023/12/07 02:19:51;;;;;;;3.92;1.90;;;8.70;71.00;;;;;;4985176;28;20023;-82
2023/12/07 02:22:25;;;;;;;5.40;1.70;;;8.70;71.00;;;;;;4987322;28;20047;-82
2023/12/07 02:25:05;;;;;;;3.88;1.70;;;8.80;71.20;;;;;;4978551;28;20042;-80
2023/12/07 02:27:40;;;;;;;2.65;1.58;;;8.80;71.20;;;;;;4966778;28;20338;-81
2023/12/07 02:30:08;;;;;;;2.83;2.03;;;8.80;71.20;;;;;;4983497;28;20129;-82
2023/12/07 02:32:41;;;;;;;2.70;1.55;;;8.80;71.20;;;;;;4992596;28;20037;-82
2023/12/07 02:35:09;;;;;;;1.45;1.27;;;8.80;71.30;;;;;;4961148;28;20046;-81
2023/12/07 02:37:47;;;;;;;4.30;1.40;;;8.90;71.50;;;;;;4993630;28;20038;-81
2023/12/07 02:40:17;;;;;;;2.35;1.70;;;8.90;71.50;;;;;;4989198;28;20030;-83
2023/12/07 02:42:44;;;;;;;2.40;1.30;;;8.90;71.50;;;;;;4990193;28;20097;-83
2023/12/07 02:45:12;;;;;;;1.65;1.33;;;8.90;71.50;;;;;;4987629;28;20057;-83
2023/12/07 02:47:38;;;;;;;1.85;1.27;;;8.90;71.60;;;;;;4992510;28;20074;-83
2023/12/07 02:50:07;;;;;;;2.35;1.42;;;9.00;71.70;;;;;;5005258;28;20064;-79
2023/12/07 02:52:35;;;;;;;1.52;1.20;;;9.00;71.80;;;;;;4973533;28;20033;-82
2023/12/07 02:55:03;;;;;;;3.05;1.35;;;9.00;71.90;;;;;;4971559;28;20057;-81
2023/12/07 02:57:33;;;;;;;1.88;1.08;;;9.00;71.90;;;;;;4987256;28;20035;-82
2023/12/07 02:59:59;;;;;;;3.75;1.80;;;9.00;71.90;;;;;;4978430;28;20068;-83
2023/12/07 03:02:26;;;;;;;2.50;1.48;;;9.00;71.90;;;;;;4981957;28;20034;-84
2023/12/07 03:04:52;;;;;;;1.73;1.15;;;9.10;72.10;;;;;;4996172;28;20085;-83
2023/12/07 03:07:19;;;;;;;4.28;1.40;;;9.10;72.10;;;;;;4984458;28;20048;-81
2023/12/07 03:09:45;;;;;;;1.55;1.13;;;9.10;72.20;;;;;;4992013;28;20050;-81
2023/12/07 03:12:11;;;;;;;1.40;1.20;;;9.20;72.40;;;;;;4993109;28;20137;-81
2023/12/07 03:14:39;;;;;;;2.30;1.25;;;9.20;72.40;;;;;;4975593;28;20125;-81
2023/12/07 03:17:06;;;;;;;1.52;1.20;;;9.20;72.40;;;;;;5000844;28;20042;-84
2023/12/07 03:19:32;;;;;;;2.15;1.30;;;9.20;72.40;;;;;;4991583;28;20536;-83
2023/12/07 03:21:58;;;;;;;2.15;1.38;;;9.20;72.40;;;;;;4998874;28;20645;-82
2023/12/07 03:24:24;;;;;;;2.00;1.27;;;9.30;72.60;;;;;;4994749;28;20033;-81
2023/12/07 03:26:50;;;;;;;1.45;1.23;;;9.30;72.60;;;;;;4995871;28;20050;-82
2023/12/07 03:29:16;;;;;;;1.52;1.15;;;9.30;72.70;;;;;;4996529;28;20567;-82
2023/12/07 03:31:42;;;;;;;2.65;1.20;;;9.30;72.70;;;;;;4974324;28;20049;-81
2023/12/07 03:34:08;;;;;;;1.00;0.90;;;9.30;72.70;;;;;;4987286;28;20447;-82
2023/12/07 03:36:39;;;;;;;1.77;1.00;;;9.40;72.80;;;;;;4989441;28;20023;-81
2023/12/07 03:39:05;;;;;;;1.77;1.20;;;9.40;72.90;;;;;;4976173;28;20065;-82
2023/12/07 03:41:31;;;;;;;2.13;1.00;;;9.40;72.90;;;;;;4989807;28;20053;-82
2023/12/07 03:43:58;;;;;;;1.58;1.00;;;9.40;72.90;;;;;;4995583;28;20034;-81
2023/12/07 03:46:29;;;;;;;1.10;1.00;;;9.50;73.10;;;;;;4990910;28;20049;-81
2023/12/07 03:48:59;;;;;;;1.52;0.98;;;9.40;72.90;;;;;;4982010;28;20046;-81
2023/12/07 03:51:29;;;;;;;0.98;0.80;;;9.50;73.10;;;;;;4993483;28;20046;-81
2023/12/07 03:53:55;;;;;;;1.08;0.80;;;9.50;73.10;;;;;;4991427;28;20041;-81
2023/12/07 03:56:29;;;;;;;1.45;0.73;;;9.50;73.10;;;;;;4993199;28;20034;-82
2023/12/07 03:58:56;;;;;;;1.20;1.00;;;9.50;73.10;;;;;;4973831;28;20047;-83
2023/12/07 04:01:23;;;;;;;0.88;0.80;;;9.60;73.30;;;;;;4971872;28;20133;-82
2023/12/07 04:03:55;;;;;;;1.17;0.70;;;9.60;73.30;;;;;;4972983;28;20035;-82
2023/12/07 04:06:22;;;;;;;0.80;0.50;;;9.60;73.30;;;;;;4971782;28;20042;-81
2023/12/07 04:08:49;;;;;;;0.52;0.50;;;9.60;73.20;;;;;;4988069;28;20030;-81
2023/12/07 04:11:16;;;;;;;0.70;0.70;;;9.60;73.30;;;;;;4957736;28;20129;-82
2023/12/07 04:13:43;;;;;;;0.60;0.60;;;9.70;73.40;;;;;;4959649;28;20484;-84
2023/12/07 04:16:10;;;;;;;0.60;0.60;;;9.70;73.40;;;;;;4993310;28;20030;-82
2023/12/07 04:18:37;;;;;;;0.60;0.60;;;9.70;73.40;;;;;;4983530;28;20038;-83
2023/12/07 04:21:05;;;;;;;0.60;0.40;;;9.70;73.40;;;;;;4991253;28;20050;-80
2023/12/07 04:23:31;;;;;;;0.90;0.60;;;9.70;73.30;;;;;;4993382;28;20030;-83
2023/12/07 04:25:59;;;;;;;0.93;0.60;;;9.70;73.30;;;;;;4993142;28;20288;-83
2023/12/07 04:28:26;;;;;;;0.63;0.55;;;9.70;73.40;;;;;;4961163;28;20030;-82
2023/12/07 04:30:52;;;;;;;0.93;0.70;;;9.70;73.30;;;;;;4976161;28;20126;-82
2023/12/07 04:33:18;;;;;;;0.93;0.50;;;9.70;73.30;;;;;;4994550;28;20102;-84
2023/12/07 04:35:44;;;;;;;1.08;0.50;;;9.70;73.30;;;;;;4992012;28;20161;-84
2023/12/07 04:38:10;;;;;;;2.13;0.47;;;9.70;73.30;;;;;;4976600;28;20038;-84
2023/12/07 04:40:37;;;;;;;0.50;0.47;;;9.70;73.30;;;;;;4989592;28;20117;-82
2023/12/07 04:43:03;;;;;;;0.55;0.40;;;9.70;73.30;;;;;;4989345;28;20110;-82
2023/12/07 04:45:29;;;;;;;0.88;0.47;;;9.80;73.50;;;;;;4991768;28;20077;-84
2023/12/07 04:47:57;;;;;;;1.35;0.80;;;9.80;73.50;;;;;;4999222;28;20046;-82
2023/12/07 04:50:23;;;;;;;0.88;0.45;;;9.80;73.50;;;;;;5011984;28;20054;-82
2023/12/07 04:52:50;;;;;;;0.88;0.63;;;9.80;73.50;;;;;;5005162;28;20109;-82
2023/12/07 04:55:16;;;;;;;0.60;0.38;;;9.80;73.50;;;;;;4994470;28;20108;-82
2023/12/07 04:57:42;;;;;;;1.20;0.52;;;9.90;73.70;;;;;;5012872;28;20030;-83
2023/12/07 05:00:09;;;;;;;1.08;0.40;;;9.90;73.70;;;;;;5012282;28;20046;-81
2023/12/07 05:02:37;;;;;;;0.75;0.63;;;9.90;73.60;;;;;;5014183;28;20052;-82
2023/12/07 05:05:05;;;;;;;0.40;0.30;;;9.90;73.60;;;;;;5019025;28;20038;-82
2023/12/07 05:07:30;;;;;;;0.50;0.50;;;9.90;73.60;;;;;;5004715;28;20042;-83
2023/12/07 05:09:58;;;;;;;0.55;0.40;;;9.90;73.60;;;;;;4992974;28;20045;-83
2023/12/07 05:12:24;;;;;;;0.85;0.70;;;9.90;73.60;;;;;;5013931;28;20061;-85
2023/12/07 05:14:52;;;;;;;0.60;0.60;;;9.90;73.60;;;;;;4962587;28;20044;-84
2023/12/07 05:17:18;;;;;;;0.40;0.40;;;9.90;73.50;;;;;;5012309;28;20037;-84
2023/12/07 05:19:45;;;;;;;0.50;0.40;;;9.90;73.50;;;;;;4995875;28;20133;-81
2023/12/07 05:22:11;;;;;;;0.43;0.43;;;9.90;73.50;;;;;;5012123;28;20026;-81
2023/12/07 05:24:37;;;;;;;0.65;0.60;;;9.90;73.50;;;;;;5010071;28;20045;-80
2023/12/07 05:27:04;;;;;;;0.50;0.50;;;9.90;73.50;;;;;;4999796;28;20502;-81
2023/12/07 05:29:30;;;;;;;0.93;0.50;;;10.00;73.70;;;;;;5015344;28;20204;-81
2023/12/07 05:31:56;;;;;;;0.50;0.50;;;10.00;73.70;;;;;;5009119;28;20034;-82
2023/12/07 05:34:24;;;;;;;0.70;0.50;;;10.00;73.70;;;;;;5012414;28;20422;-83
2023/12/07 05:36:50;;;;;;;1.85;0.38;;;10.00;73.70;;;;;;4996789;28;20034;-84
2023/12/07 05:39:20;;;;;;;0.70;0.50;;;10.00;73.60;;;;;;4996631;28;20033;-83
2023/12/07 05:41:47;;;;;;;0.40;0.40;;;10.00;73.60;;;;;;4992278;28;20053;-81
2023/12/07 05:44:14;;;;;;;0.90;0.45;;;10.00;73.60;;;;;;5014863;28;20183;-81
2023/12/07 05:46:44;;;;;;;0.93;0.70;;;10.10;73.80;;;;;;5015335;28;20064;-81
2023/12/07 05:49:13;;;;;;;0.65;0.43;;;10.10;73.70;;;;;;5005983;28;20071;-83
2023/12/07 05:51:40;;;;;;;0.40;0.40;;;10.10;73.70;;;;;;4974931;28;20459;-83
2023/12/07 05:54:06;;;;;;;0.63;0.63;;;10.10;73.70;;;;;;4960266;28;20057;-82
2023/12/07 05:56:32;;;;;;;0.98;0.43;;;10.10;73.60;;;;;;4993927;28;20092;-82
2023/12/07 05:58:59;;;;;;;1.00;0.40;;;10.10;73.60;;;;;;4990957;28;20065;-82
2023/12/07 06:01:30;;;;;;;1.42;0.95;;;10.10;73.60;;;;;;4990808;28;20046;-82
2023/12/07 06:03:57;;;;;;;0.50;0.50;;;10.10;73.70;;;;;;4985309;28;20120;-82
2023/12/07 06:06:27;;;;;;;1.23;0.50;;;10.10;73.60;;;;;;4974554;28;20492;-82
2023/12/07 06:08:56;;;;;;;1.45;0.80;;;10.10;73.50;;;;;;4981247;28;20144;-83
2023/12/07 06:11:23;;;;;;;1.70;0.60;;;10.10;73.60;;;;;;4985820;28;20046;-82
2023/12/07 06:13:48;;;;;;;0.57;0.57;;;10.10;73.50;;;;;;4986314;28;20046;-82
2023/12/07 06:16:16;;;;;;;0.55;0.50;;;10.10;73.50;;;;;;4984974;28;20042;-83
2023/12/07 06:18:43;;;;;;;0.85;0.63;;;10.10;73.50;;;;;;4968828;28;20134;-84
2023/12/07 06:21:09;;;;;;;0.50;0.50;;;10.10;73.50;;;;;;4986543;28;20470;-82
2023/12/07 06:23:38;;;;;;;1.58;0.60;;;10.10;73.50;;;;;;4987562;28;20055;-82
2023/12/07 06:26:06;;;;;;;0.85;0.47;;;10.10;73.50;;;;;;4982145;28;20062;-81
2023/12/07 06:28:35;;;;;;;1.73;0.80;;;10.10;73.50;;;;;;4986283;28;20085;-82
2023/12/07 06:31:08;;;;;;;0.88;0.73;;;10.10;73.50;;;;;;4984285;28;20057;-82
2023/12/07 06:33:37;;;;;;;0.70;0.50;;;10.10;73.40;;;;;;4989267;28;20033;-84
2023/12/07 06:36:05;;;;;;;1.20;0.70;;;10.10;73.40;;;;;;4989317;28;20038;-85
2023/12/07 06:38:31;;;;;;;1.90;0.90;;;10.10;73.40;;;;;;4984231;28;20137;-84
2023/12/07 06:40:58;;;;;;;1.23;0.73;;;10.10;73.30;;;;;;4984725;28;20423;-84
2023/12/07 06:43:25;;;;;;;1.02;0.93;;;10.10;73.40;;;;;;4991097;28;20520;-81
2023/12/07 06:45:52;;;;;;;2.22;0.80;;;10.10;73.30;;;;;;4994204;28;20022;-88
2023/12/07 06:48:19;;;;;;;0.82;0.73;;;10.10;73.30;;;;;;4997602;28;20109;-91
2023/12/07 06:50:50;;;;;;;3.13;0.70;;;10.10;73.40;;;;;;5007149;28;20124;-80
2023/12/07 06:53:18;;;;;;;2.50;0.60;;;10.10;73.40;;;;;;5009742;28;20371;-84
2023/12/07 06:55:46;;;;;;;3.47;1.10;;;10.10;73.50;;;;;;5000350;28;20068;-85
2023/12/07 06:58:12;;;;;;;7.88;2.55;;;10.10;73.50;;;;;;5001974;28;20097;-82
2023/12/07 07:00:40;;;;;;;8.45;2.50;;;10.10;73.60;;;;;;5017187;28;20069;-85
2023/12/07 07:03:10;;;;;;;10.88;3.03;;;10.20;73.80;;;;;;4999953;28;20030;-85
2023/12/07 07:05:41;;;;;;;20.17;5.68;;;10.20;73.90;;;;;;5015552;28;20036;-85
2023/12/07 07:08:13;;;;;;;12.95;3.45;;;10.20;73.90;;;;;;5005773;28;20064;-83
2023/12/07 07:10:42;;;;;;;;;;;10.20;74.00;;;;;;5007777;28;20407;-84
2023/12/07 07:13:16;;;;;;;11.38;3.92;;;10.20;74.00;;;;;;5005943;28;19909;-83
2023/12/07 07:15:43;;;;;;;12.00;3.70;;;10.30;74.00;;;;;;4993120;28;20038;-84
2023/12/07 07:18:10;;;;;;;15.13;3.65;;;10.30;74.10;;;;;;4989460;28;20041;-85
2023/12/07 07:20:36;;;;;;;12.68;3.38;;;10.30;74.20;;;;;;5006249;28;20048;-86
2023/12/07 07:23:02;;;;;;;11.23;2.70;;;10.30;74.20;;;;;;5006005;28;20874;-86
2023/12/07 07:25:32;;;;;;;13.50;3.88;;;10.30;74.20;;;;;;5007258;28;20227;-84
2023/12/07 07:27:57;;;;;;;9.20;3.17;;;10.30;74.30;;;;;;4972946;28;20037;-85
2023/12/07 07:30:25;;;;;;;7.85;2.80;;;10.30;74.30;;;;;;4995595;28;20307;-85
2023/12/07 07:32:51;;;;;;;11.25;2.65;;;10.40;74.50;;;;;;5006085;28;20061;-83
2023/12/07 07:35:18;;;;;;;8.90;2.65;;;10.30;74.30;;;;;;5028449;28;20034;-84
2023/12/07 07:37:44;;;;;;;9.43;2.45;;;10.30;74.40;;;;;;5029673;28;20034;-86
2023/12/07 07:40:14;;;;;;;8.23;2.05;;;10.40;74.50;;;;;;5021675;28;20044;-87
2023/12/07 07:42:40;;;;;;;6.30;1.85;;;10.40;74.50;;;;;;5023529;28;20080;-83
2023/12/07 07:45:07;;;;;;;3.75;1.98;;;10.40;74.50;;;;;;5008895;28;20033;-84
2023/12/07 07:47:34;;;;;;;6.97;1.90;;;10.40;74.40;;;;;;5031739;28;20053;-85
2023/12/07 07:50:06;;;;;;;4.20;1.73;;;10.40;74.40;;;;;;5031291;28;20053;-82
2023/12/07 07:52:35;;;;;;;7.70;2.43;;;10.40;74.30;;;;;;5035201;28;20057;-87
2023/12/07 07:55:08;;;;;;;5.13;1.40;;;10.40;74.20;;;;;;5034801;28;20054;-85
2023/12/07 07:57:36;;;;;;;2.58;1.30;;;10.40;74.10;;;;;;5016091;28;20033;-86
2023/12/07 08:00:08;;;;;;;4.45;1.75;;;10.40;74.00;;;;;;4999878;28;20046;-84
2023/12/07 08:02:36;;;;;;;6.47;2.10;;;10.40;73.90;;;;;;4986786;28;20042;-85
2023/12/07 08:05:02;;;;;;;5.72;2.15;;;10.40;73.80;;;;;;4990143;28;20037;-84
2023/12/07 08:07:29;;;;;;;4.38;1.38;;;10.40;73.70;;;;;;5003746;28;20091;-87
2023/12/07 08:09:55;;;;;;;4.25;1.80;;;10.50;73.70;;;;;;5007495;28;20486;-88
2023/12/07 08:12:23;;;;;;;4.82;1.50;;;10.40;73.50;;;;;;5010764;28;20034;-87
2023/12/07 08:14:50;;;;;;;3.47;1.75;;;10.40;73.40;;;;;;4974630;28;20049;-86
2023/12/07 08:17:19;;;;;;;3.08;1.23;;;10.40;73.30;;;;;;4995033;28;20038;-87
2023/12/07 08:19:48;;;;;;;3.28;1.27;;;10.50;73.30;;;;;;4996437;28;20050;-88
2023/12/07 08:22:14;;;;;;;3.90;1.60;;;10.50;73.20;;;;;;4995166;28;20092;-89
2023/12/07 08:24:40;;;;;;;3.15;1.10;;;10.50;73.60;;;;;;4978857;28;20054;-87
2023/12/07 08:27:07;;;;;;;2.70;1.02;;;10.50;73.00;;;;;;5019618;28;20030;-90
2023/12/07 08:29:34;;;;;;;4.18;1.23;;;10.50;72.90;;;;;;5022032;28;20483;-89
2023/12/07 08:32:05;;;;;;;2.70;1.00;;;10.50;72.70;;;;;;5016307;28;20018;-90
2023/12/07 08:34:32;;;;;;;3.85;1.27;;;10.50;72.70;;;;;;4977363;28;20123;-88
2023/12/07 08:36:58;;;;;;;4.65;1.52;;;10.60;72.80;;;;;;4975761;28;20112;-88
2023/12/07 08:39:26;;;;;;;2.63;1.13;;;10.60;72.70;;;;;;5017738;28;20038;-87
2023/12/07 08:41:52;;;;;;;3.08;1.00;;;10.60;72.60;;;;;;4984565;28;20048;-87
2023/12/07 08:44:18;;;;;;;2.15;1.05;;;10.60;72.50;;;;;;5011468;28;20410;-90
2023/12/07 08:46:47;;;;;;;2.78;1.10;;;10.60;72.40;;;;;;5013542;28;20030;-89
2023/12/07 08:49:15;;;;;;;2.17;1.10;;;10.60;72.30;;;;;;5001311;28;20393;-87
2023/12/07 08:51:45;;;;;;;3.72;1.17;;;10.60;72.20;;;;;;4955857;28;20073;-87
2023/12/07 08:54:17;;;;;;;2.67;1.27;;;10.70;72.30;;;;;;4988757;28;20081;-83
2023/12/07 08:56:44;;;;;;;1.52;1.15;;;10.70;72.10;;;;;;4991950;28;20032;-84
2023/12/07 08:59:11;;;;;;;1.65;1.10;;;10.70;72.10;;;;;;4977903;28;20050;-83
2023/12/07 09:01:38;;;;;;;3.17;1.38;;;10.70;71.90;;;;;;4953659;28;20105;-84
2023/12/07 09:04:05;;;;;;;1.60;1.13;;;10.70;71.90;;;;;;4986244;28;20038;-86
2023/12/07 09:06:32;;;;;;;3.33;1.00;;;10.70;71.80;;;;;;4982705;28;20707;-85
2023/12/07 09:08:58;;;;;;;2.63;0.90;;;10.80;71.80;;;;;;4980148;28;20042;-83
2023/12/07 09:11:25;;;;;;;2.45;1.17;;;10.80;71.70;;;;;;4968495;28;20808;-83
2023/12/07 09:13:51;;;;;;;2.30;1.10;;;10.80;71.60;;;;;;4985678;28;20061;-82
2023/12/07 09:16:17;;;;;;;2.03;0.90;;;10.90;71.60;;;;;;4993643;28;20129;-87
2023/12/07 09:18:46;;;;;;;2.67;1.20;;;10.90;71.50;;;;;;4973035;28;20058;-84
2023/12/07 09:21:13;;;;;;;2.72;1.05;;;11.00;71.50;;;;;;4972312;28;20049;-83
2023/12/07 09:23:42;;;;;;;2.10;0.93;;;11.00;71.40;;;;;;4970239;28;20148;-83
2023/12/07 09:26:08;;;;;;;1.77;1.45;;;11.00;71.30;;;;;;4990419;28;20045;-86
2023/12/07 09:28:39;;;;;;;3.42;1.00;;;11.10;71.30;;;;;;4970237;28;20040;-85
2023/12/07 09:31:07;;;;;;;1.48;0.93;;;11.10;71.20;;;;;;4990467;28;20034;-85
2023/12/07 09:33:34;;;;;;;0.90;0.80;;;11.10;71.00;;;;;;4999509;28;20124;-87
2023/12/07 09:36:03;;;;;;;3.25;1.10;;;11.20;71.10;;;;;;4998612;28;20087;-87
2023/12/07 09:38:29;;;;;;;1.27;0.80;;;11.20;70.90;;;;;;4977480;28;20049;-87
2023/12/07 09:40:56;;;;;;;2.72;0.93;;;11.30;70.90;;;;;;4991812;28;20050;-85
2023/12/07 09:43:22;;;;;;;1.92;0.90;;;11.30;70.80;;;;;;5010010;28;20057;-86
2023/12/07 09:45:50;;;;;;;1.48;0.57;;;11.40;70.80;;;;;;4988722;28;20034;-87
2023/12/07 09:48:18;;;;;;;2.55;0.90;;;11.40;70.60;;;;;;5006935;28;20073;-88
2023/12/07 09:50:44;;;;;;;3.33;0.68;;;11.50;70.60;;;;;;5025772;28;20057;-86
2023/12/07 09:53:11;;;;;;;1.98;0.95;;;11.50;70.40;;;;;;5025006;28;20101;-87
2023/12/07 09:55:37;;;;;;;0.85;0.50;;;11.60;70.40;;;;;;4991009;28;20411;-86
2023/12/07 09:58:04;;;;;;;0.98;0.63;;;11.60;70.30;;;;;;5006432;28;20205;-87
2023/12/07 10:00:30;;;;;;;2.05;0.82;;;11.70;70.30;;;;;;5009018;28;20477;-88
2023/12/07 10:02:57;;;;;;;1.20;0.57;;;11.80;70.30;;;;;;5006302;28;20600;-86
2023/12/07 10:05:23;;;;;;;1.50;0.80;;;11.80;70.10;;;;;;4989055;28;20102;-87
2023/12/07 10:07:50;;;;;;;1.02;0.70;;;11.80;70.00;;;;;;5005909;28;20052;-86
2023/12/07 10:10:18;;;;;;;0.98;0.60;;;11.80;69.90;;;;;;5007576;28;20034;-85
2023/12/07 10:12:55;;;;;;;2.22;0.60;;;11.80;69.80;;;;;;4990609;28;20037;-87
2023/12/07 10:15:25;;;;;;;2.22;0.75;;;11.90;69.80;;;;;;4988902;28;20069;-84
2023/12/07 10:17:59;;;;;;;1.60;0.77;;;11.90;69.70;;;;;;5007507;28;20069;-86
2023/12/07 10:20:28;;;;;;;1.30;0.70;;;11.90;69.60;;;;;;5008403;28;20934;-86
2023/12/07 10:23:03;;;;;;;1.13;0.70;;;11.90;69.60;;;;;;4989960;28;20057;-85
2023/12/07 10:25:33;;;;;;;1.05;0.70;;;11.90;69.40;;;;;;5005492;28;20038;-83
2023/12/07 10:28:00;;;;;;;0.60;0.55;;;11.90;69.90;;;;;;4990456;28;20080;-84
2023/12/07 10:30:27;;;;;;;1.10;0.60;;;11.90;69.30;;;;;;5008129;28;20053;-84
2023/12/07 10:32:53;;;;;;;0.70;0.63;;;11.90;69.20;;;;;;4991488;28;20412;-86
2023/12/07 10:35:22;;;;;;;0.82;0.60;;;11.90;69.10;;;;;;5017345;28;20494;-85
2023/12/07 10:37:53;;;;;;;1.45;0.60;;;11.90;69.10;;;;;;5023378;28;20037;-89
2023/12/07 10:40:22;;;;;;;0.88;0.63;;;11.90;69.40;;;;;;4997665;28;20046;-85
2023/12/07 10:42:48;;;;;;;0.90;0.70;;;11.90;68.90;;;;;;5015811;28;20034;-85
2023/12/07 10:45:16;;;;;;;1.42;0.65;;;11.90;68.80;;;;;;5004557;28;20416;-85
2023/12/07 10:47:44;;;;;;;1.70;0.85;;;12.00;68.90;;;;;;5009095;28;20608;-85
2023/12/07 10:50:13;;;;;;;1.65;0.60;;;12.00;68.80;;;;;;5005408;28;20715;-87
2023/12/07 10:52:57;;;;;;;1.90;0.60;;;12.00;68.70;;;;;;4972545;28;20041;-85
2023/12/07 10:55:28;;;;;;;;;;;12.00;68.50;;;;;;5006694;28;20026;-88
2023/12/07 10:57:56;;;;;;;2.10;0.82;;;12.00;68.50;;;;;;4974193;28;19952;-89
2023/12/07 11:00:27;;;;;;;1.52;0.52;;;12.00;68.60;;;;;;5005897;28;20038;-88
2023/12/07 11:02:55;;;;;;;;;;;12.00;68.40;;;;;;4989140;28;20076;-90
2023/12/07 11:05:21;;;;;;;1.58;0.88;;;12.00;68.40;;;;;;4969553;28;19925;-87
2023/12/07 11:08:08;;;;;;;1.67;0.60;;;12.10;68.60;;;;;;4985406;28;20026;-88
2023/12/07 11:10:43;;;;;;;1.52;0.63;;;12.10;68.40;;;;;;5005798;28;20038;-88
2023/12/07 11:13:33;;;;;;;1.42;0.60;;;12.10;68.30;;;;;;5005234;28;20064;-88
2023/12/07 11:16:00;;;;;;;1.50;0.75;;;12.10;68.20;;;;;;4988586;28;20216;-88
2023/12/07 11:18:27;;;;;;;0.82;0.60;;;12.10;68.20;;;;;;4997952;28;20407;-88
2023/12/07 11:20:55;;;;;;;1.67;0.60;;;12.10;68.00;;;;;;5000330;28;20046;-88
2023/12/07 11:23:22;;;;;;;1.40;0.70;;;12.20;68.10;;;;;;4995430;28;20093;-88
2023/12/07 11:25:50;;;;;;;2.03;0.90;;;12.10;67.90;;;;;;5011537;28;20061;-89
2023/12/07 11:28:16;;;;;;;0.93;0.85;;;12.20;67.90;;;;;;5018177;28;20125;-89
2023/12/07 11:30:46;;;;;;;2.15;0.80;;;12.20;67.90;;;;;;5010287;28;20056;-89
2023/12/07 11:33:14;;;;;;;1.50;0.65;;;12.20;67.80;;;;;;4991863;28;20867;-88
2023/12/07 11:36:02;;;;;;;0.50;0.43;;;12.20;67.80;;;;;;4994146;28;20038;-87
2023/12/07 11:38:29;;;;;;;1.40;0.50;;;12.20;67.60;;;;;;4993293;28;20041;-89
2023/12/07 11:40:56;;;;;;;1.00;0.50;;;12.20;67.70;;;;;;5007844;28;20073;-85
2023/12/07 11:43:32;;;;;;;1.42;0.80;;;12.20;67.60;;;;;;5009607;28;20069;-84
2023/12/07 11:45:58;;;;;;;1.27;0.60;;;12.20;67.50;;;;;;5008645;28;20049;-85
2023/12/07 11:48:26;;;;;;;1.58;0.80;;;12.20;67.50;;;;;;5007844;28;20030;-85
2023/12/07 11:51:01;;;;;;;0.70;0.47;;;12.20;67.40;;;;;;4983678;28;20038;-87
2023/12/07 11:53:31;;;;;;;0.85;0.60;;;12.20;67.90;;;;;;4989150;28;20488;-88
2023/12/07 11:56:05;;;;;;;0.45;0.40;;;12.20;67.30;;;;;;4992495;28;20309;-87
2023/12/07 11:58:34;;;;;;;3.42;0.63;;;12.20;67.30;;;;;;4975310;28;20627;-88
2023/12/07 12:01:03;;;;;;;0.50;0.43;;;12.20;67.20;;;;;;4973999;28;20034;-87
2023/12/07 12:03:34;;;;;;;1.45;0.50;;;12.20;67.10;;;;;;4990887;28;20053;-88
2023/12/07 12:06:05;;;;;;;0.50;0.45;;;12.20;67.60;;;;;;4963025;28;20045;-83
2023/12/07 12:08:33;;;;;;;1.10;0.50;;;12.20;67.00;;;;;;4987872;28;20439;-84
2023/12/07 12:10:59;;;;;;;2.03;0.65;;;12.20;67.00;;;;;;4974868;28;20034;-87
2023/12/07 12:13:30;;;;;;;0.75;0.45;;;12.30;67.20;;;;;;4976028;28;20045;-86
2023/12/07 12:16:00;;;;;;;1.25;0.50;;;12.30;67.00;;;;;;4983850;28;20038;-83
2023/12/07 12:18:27;;;;;;;1.30;0.50;;;12.30;66.90;;;;;;4985807;28;20092;-83
2023/12/07 12:20:54;;;;;;;1.08;0.45;;;12.30;66.90;;;;;;4987718;28;20053;-84
2023/12/07 12:23:21;;;;;;;1.48;0.60;;;12.30;66.80;;;;;;4992510;28;20026;-85
2023/12/07 12:25:48;;;;;;;1.15;0.60;;;12.30;66.80;;;;;;4966538;28;20045;-86
2023/12/07 12:28:21;;;;;;;1.38;0.55;;;12.30;66.70;;;;;;4974873;28;20034;-84
2023/12/07 12:30:48;;;;;;;1.02;0.50;;;12.30;66.70;;;;;;4984741;28;20034;-85
2023/12/07 12:33:18;;;;;;;2.10;0.60;;;12.30;66.70;;;;;;4990617;28;20049;-84
2023/12/07 12:36:06;;;;;;;1.73;0.75;;;12.30;66.60;;;;;;4974081;28;20127;-86
2023/12/07 12:38:33;;;;;;;0.40;0.40;;;12.30;66.50;;;;;;4992172;28;20042;-84
2023/12/07 12:41:03;;;;;;;0.85;0.40;;;12.30;66.50;;;;;;4991947;28;20058;-85
2023/12/07 12:43:31;;;;;;;0.82;0.45;;;12.30;66.40;;;;;;4995241;28;20065;-85
2023/12/07 12:45:58;;;;;;;0.50;0.40;;;12.30;66.40;;;;;;4973259;28;20046;-84
2023/12/07 12:48:25;;;;;;;1.90;0.55;;;12.30;66.40;;;;;;4962288;28;20034;-86
2023/12/07 12:50:51;;;;;;;0.50;0.35;;;12.30;66.30;;;;;;4993680;28;20102;-86
2023/12/07 12:53:17;;;;;;;1.23;0.60;;;12.40;66.50;;;;;;5000015;28;20119;-85
2023/12/07 12:55:46;;;;;;;0.90;0.60;;;12.40;66.40;;;;;;4988909;28;20078;-86